createdAt,value
2018-01-12T00:01:46.233Z,109.17
2018-01-12T00:03:47.200Z,112.03
2018-01-12T00:06:04.074Z,113.77
2018-01-12T00:08:05.266Z,125.13
2018-01-12T00:10:08.297Z,118.73
2018-01-12T00:14:19.840Z,112.57
2018-01-12T00:16:20.855Z,100.07
2018-01-12T00:20:39.655Z,107.53
2018-01-12T00:22:40.751Z,116.23
2018-01-12T00:24:41.737Z,115.33
2018-01-12T00:26:42.804Z,128.33
2018-01-12T00:28:43.752Z,113.63
2018-01-12T00:30:44.767Z,126.23
2018-01-12T00:32:48.940Z,131.03
2018-01-12T00:34:49.960Z,117.33
2018-01-12T00:36:50.899Z,137.13
2018-01-12T00:38:51.878Z,113.53
2018-01-12T00:40:52.904Z,110.27
2018-01-12T00:42:53.915Z,113.63
2018-01-12T00:45:12.506Z,120.13
2018-01-12T00:47:13.486Z,105.40
2018-01-12T00:49:15.189Z,116.83
2018-01-12T00:51:17.905Z,117.17
2018-01-12T00:53:19.139Z,104.00
2018-01-12T00:55:20.200Z,113.90
2018-01-12T00:57:21.198Z,100.87
2018-01-12T00:59:22.980Z,107.00
2018-01-12T01:01:24.072Z,90.27
2018-01-12T01:03:32.628Z,94.00
2018-01-12T01:05:34.348Z,86.83
2018-01-12T01:07:35.424Z,93.97
2018-01-12T01:09:36.546Z,102.53
2018-01-12T01:11:38.328Z,101.53
2018-01-12T01:13:40.002Z,96.80
2018-01-12T01:15:41.067Z,98.23
2018-01-12T01:17:42.072Z,113.77
2018-01-12T01:19:49.344Z,108.30
2018-01-12T01:24:17.844Z,95.97
2018-01-12T01:26:18.847Z,99.47
2018-01-12T01:28:19.880Z,102.93
2018-01-12T01:32:34.708Z,80.93
2018-01-12T01:34:35.742Z,90.67
2018-01-12T01:36:36.760Z,88.23
2018-01-12T01:38:37.861Z,85.00
2018-01-12T01:40:38.903Z,87.47
2018-01-12T01:42:39.937Z,90.13
2018-01-12T01:44:40.966Z,89.70
2018-01-12T01:46:42.694Z,104.20
2018-01-12T01:48:43.660Z,99.90
2018-01-12T01:50:44.655Z,106.20
2018-01-12T01:52:46.376Z,88.90
2018-01-12T01:54:56.650Z,85.23
2018-01-12T01:56:58.370Z,91.67
2018-01-12T01:58:59.432Z,78.37
2018-01-12T02:01:00.483Z,93.73
2018-01-12T02:03:01.498Z,78.17
2018-01-12T02:05:02.618Z,90.53
2018-01-12T02:07:03.608Z,78.50
2018-01-12T02:09:22.858Z,83.57
2018-01-12T02:11:23.936Z,95.00
2018-01-12T02:13:24.916Z,90.00
2018-01-12T02:25:39.799Z,107.70
2018-01-12T02:27:49.554Z,96.83
2018-01-12T02:29:50.591Z,90.87
2018-01-12T02:31:54.514Z,94.23
2018-01-12T02:33:55.699Z,86.47
2018-01-12T02:35:56.688Z,96.10
2018-01-12T02:40:34.651Z,108.97
2018-01-12T02:42:35.689Z,100.07
2018-01-12T02:44:36.644Z,114.37
2018-01-12T02:46:37.701Z,104.77
2018-01-12T02:48:39.527Z,105.63
2018-01-12T02:50:40.452Z,105.50
2018-01-12T02:52:42.775Z,96.80
2018-01-12T02:54:45.754Z,107.37
2018-01-12T02:56:46.908Z,107.27
2018-01-12T02:58:47.867Z,126.33
2018-01-12T03:00:48.885Z,122.67
2018-01-12T03:02:49.856Z,116.60
2018-01-12T03:04:50.844Z,124.90
2018-01-12T03:06:53.210Z,121.97
2018-01-12T03:08:55.882Z,116.67
2018-01-12T03:10:57.016Z,132.70
2018-01-12T03:12:57.999Z,124.87
2018-01-12T03:14:58.999Z,113.60
2018-01-12T03:16:59.963Z,108.83
2018-01-12T03:19:00.963Z,113.43
2018-01-12T03:21:02.012Z,142.57
2018-01-12T03:23:02.968Z,108.80
2018-01-12T03:25:03.987Z,150.07
2018-01-12T03:27:05.005Z,106.10
2018-01-12T03:29:06.051Z,116.33
2018-01-12T03:31:07.007Z,124.00
2018-01-12T03:33:07.959Z,112.70
2018-01-12T03:35:08.970Z,110.17
2018-01-12T03:37:10.293Z,124.40
2018-01-12T03:39:11.855Z,125.27
2018-01-12T03:41:42.242Z,122.50
2018-01-12T03:43:51.529Z,125.43
2018-01-12T03:45:52.535Z,122.43
2018-01-12T03:47:54.332Z,142.33
2018-01-12T03:49:55.294Z,125.33
2018-01-12T03:51:56.257Z,145.77
2018-01-12T03:53:57.261Z,137.63
2018-01-12T03:55:58.619Z,141.60
2018-01-12T03:57:59.617Z,142.03
2018-01-12T04:00:00.548Z,143.47
2018-01-12T04:02:02.109Z,182.63
2018-01-12T04:04:03.098Z,163.23
2018-01-12T04:06:04.078Z,166.33
2018-01-12T04:08:05.079Z,183.87
2018-01-12T04:10:06.079Z,157.93
2018-01-12T04:12:07.060Z,363.30
2018-01-12T04:14:08.047Z,275.07
2018-01-12T04:16:09.043Z,232.27
2018-01-12T04:18:10.071Z,198.00
2018-01-12T04:20:11.055Z,180.83
2018-01-12T04:22:12.080Z,218.73
2018-01-12T04:24:13.066Z,314.17
2018-01-12T04:26:14.012Z,242.90
2018-01-12T04:28:16.116Z,149.47
2018-01-12T04:30:17.173Z,259.43
2018-01-12T04:32:18.179Z,276.23
2018-01-12T04:34:19.178Z,276.10
2018-01-12T04:36:20.154Z,273.10
2018-01-12T04:38:21.113Z,217.73
2018-01-12T04:40:22.437Z,241.37
2018-01-12T04:42:23.451Z,164.83
2018-01-12T04:44:24.436Z,185.83
2018-01-12T04:46:26.742Z,182.30
2018-01-12T04:48:28.023Z,205.47
2018-01-12T04:50:32.818Z,181.87
2018-01-12T04:52:33.845Z,174.27
2018-01-12T04:54:35.788Z,199.70
2018-01-12T04:56:38.204Z,381.43
2018-01-12T04:58:39.271Z,269.20
2018-01-12T05:00:40.319Z,215.13
2018-01-12T05:02:41.346Z,175.20
2018-01-12T05:04:42.354Z,156.97
2018-01-12T05:06:44.088Z,134.50
2018-01-12T05:08:45.231Z,147.87
2018-01-12T05:10:46.964Z,158.57
2018-01-12T05:12:48.078Z,149.53
2018-01-12T05:15:03.261Z,201.43
2018-01-12T05:19:15.388Z,131.10
2018-01-12T05:21:16.405Z,132.13
2018-01-12T05:23:17.440Z,141.87
2018-01-12T05:25:18.422Z,135.90
2018-01-12T05:27:19.430Z,139.30
2018-01-12T05:29:20.441Z,129.43
2018-01-12T05:31:21.425Z,138.43
2018-01-12T05:33:23.910Z,118.87
2018-01-12T05:35:24.985Z,110.07
2018-01-12T05:37:25.971Z,119.80
2018-01-12T05:39:26.939Z,136.97
2018-01-12T05:41:27.961Z,119.87
2018-01-12T05:43:28.915Z,163.03
2018-01-12T05:45:31.690Z,130.00
2018-01-12T05:47:33.466Z,140.13
2018-01-12T05:49:34.553Z,120.07
2018-01-12T05:51:35.530Z,109.10
2018-01-12T05:53:36.529Z,118.40
2018-01-12T05:55:38.258Z,145.50
2018-01-12T05:57:39.344Z,150.60
2018-01-12T05:59:41.336Z,139.97
2018-01-12T06:01:54.727Z,134.47
2018-01-12T06:04:08.510Z,137.60
2018-01-12T06:06:14.246Z,149.03
2018-01-12T06:08:15.584Z,141.17
2018-01-12T06:10:19.171Z,141.10
2018-01-12T06:12:20.272Z,134.77
2018-01-12T06:14:21.208Z,136.40
2018-01-12T06:16:23.299Z,160.77
2018-01-12T06:18:29.878Z,144.03
2018-01-12T06:20:38.288Z,150.77
2018-01-12T06:22:39.415Z,140.53
2018-01-12T06:24:40.420Z,133.17
2018-01-12T06:26:41.381Z,147.40
2018-01-12T06:28:42.343Z,140.07
2018-01-12T06:30:43.364Z,159.97
2018-01-12T06:32:44.320Z,148.50
2018-01-12T06:34:45.503Z,147.00
2018-01-12T06:36:47.225Z,147.77
2018-01-12T06:38:53.214Z,237.43
2018-01-12T06:40:56.717Z,134.77
2018-01-12T06:42:58.054Z,151.90
2018-01-12T06:44:58.987Z,153.77
2018-01-12T06:47:05.796Z,143.50
2018-01-12T06:49:07.588Z,158.80
2018-01-12T06:51:08.695Z,169.57
2018-01-12T06:53:09.687Z,146.83
2018-01-12T06:55:10.683Z,169.10
2018-01-12T06:57:11.654Z,215.83
2018-01-12T06:59:13.137Z,181.63
2018-01-12T07:01:14.516Z,160.37
2018-01-12T07:03:15.599Z,168.40
2018-01-12T07:05:16.543Z,167.10
2018-01-12T07:07:17.779Z,153.57
2018-01-12T07:09:19.695Z,164.47
2018-01-12T07:11:21.340Z,163.43
2018-01-12T07:13:22.834Z,171.40
2018-01-12T07:15:23.856Z,165.70
2018-01-12T07:17:24.855Z,152.20
2018-01-12T07:19:26.305Z,172.30
2018-01-12T07:21:39.508Z,145.33
2018-01-12T07:23:45.384Z,121.33
2018-01-12T07:25:48.668Z,139.87
2018-01-12T07:27:49.685Z,154.10
2018-01-12T07:29:50.724Z,130.50
2018-01-12T07:31:51.681Z,128.50
2018-01-12T07:33:52.644Z,116.87
2018-01-12T07:35:53.623Z,121.57
2018-01-12T07:37:54.616Z,140.57
2018-01-12T07:39:55.619Z,128.97
2018-01-12T07:41:58.726Z,123.97
2018-01-12T07:43:59.894Z,123.10
2018-01-12T07:46:00.877Z,128.90
2018-01-12T07:48:01.891Z,126.03
2018-01-12T07:50:02.931Z,132.37
2018-01-12T07:52:03.935Z,122.77
2018-01-12T07:54:04.927Z,129.97
2018-01-12T07:56:05.888Z,144.67
2018-01-12T07:58:06.841Z,127.33
2018-01-12T08:00:08.382Z,143.70
2018-01-12T08:02:15.508Z,149.33
2018-01-12T08:04:16.499Z,131.30
2018-01-12T08:06:17.485Z,155.23
2018-01-12T08:08:18.435Z,176.03
2018-01-12T08:10:19.568Z,143.53
2018-01-12T08:12:20.903Z,149.87
2018-01-12T08:14:22.192Z,151.30
2018-01-12T08:16:23.237Z,155.77
2018-01-12T08:18:24.650Z,146.27
2018-01-12T08:20:25.710Z,154.53
2018-01-12T08:22:26.911Z,158.13
2018-01-12T08:24:28.288Z,159.53
2018-01-12T08:26:29.313Z,145.70
2018-01-12T08:28:30.269Z,149.87
2018-01-12T08:30:31.226Z,142.27
2018-01-12T08:32:32.439Z,154.03
2018-01-12T08:34:33.428Z,133.23
2018-01-12T08:36:34.383Z,148.43
2018-01-12T08:38:35.379Z,123.83
2018-01-12T08:40:36.343Z,138.50
2018-01-12T08:42:37.497Z,136.93
2018-01-12T08:44:38.472Z,138.60
2018-01-12T08:46:40.187Z,118.73
2018-01-12T08:48:41.466Z,126.37
2018-01-12T08:50:42.432Z,127.53
2018-01-12T08:52:43.406Z,133.27
2018-01-12T08:54:44.384Z,138.67
2018-01-12T08:56:45.383Z,113.80
2018-01-12T08:58:47.104Z,105.57
2018-01-12T09:00:48.220Z,124.97
2018-01-12T09:02:49.207Z,120.33
2018-01-12T09:04:50.212Z,99.40
2018-01-12T09:06:51.196Z,98.20
2018-01-12T09:08:52.309Z,83.90
2018-01-12T09:11:07.472Z,84.47
2018-01-12T09:13:20.791Z,82.87
2018-01-12T09:15:21.917Z,86.70
2018-01-12T09:17:35.529Z,74.23
2018-01-12T09:22:27.466Z,83.17
2018-01-12T09:24:28.540Z,103.60
2018-01-12T09:26:29.522Z,112.17
2018-01-12T09:28:30.535Z,107.97
2018-01-12T09:30:31.543Z,105.50
2018-01-12T09:32:32.680Z,126.43
2018-01-12T09:34:59.879Z,110.07
2018-01-12T09:37:01.166Z,122.20
2018-01-12T09:39:02.348Z,100.67
2018-01-12T09:43:32.687Z,86.77
2018-01-12T09:45:33.675Z,82.60
2018-01-12T09:47:38.674Z,92.83
2018-01-12T09:49:41.469Z,103.00
2018-01-12T09:51:42.470Z,96.00
2018-01-12T09:53:44.168Z,95.40
2018-01-12T09:55:45.145Z,106.07
2018-01-12T09:57:46.231Z,105.47
2018-01-12T09:59:47.248Z,110.33
2018-01-12T10:01:48.466Z,104.20
2018-01-12T10:03:49.523Z,95.77
2018-01-12T10:05:50.511Z,114.23
2018-01-12T10:08:14.933Z,94.53
2018-01-12T10:10:16.060Z,85.03
2018-01-12T10:12:17.779Z,106.27
2018-01-12T10:14:48.892Z,101.10
2018-01-12T10:16:50.019Z,93.87
2018-01-12T10:18:54.090Z,98.83
2018-01-12T10:21:20.973Z,102.07
2018-01-12T10:23:24.403Z,88.43
2018-01-12T10:25:26.573Z,89.37
2018-01-12T10:27:27.842Z,81.13
2018-01-12T10:32:06.154Z,105.70
2018-01-12T10:39:20.389Z,77.67
2018-01-12T10:43:48.876Z,109.57
2018-01-12T10:45:52.695Z,94.17
2018-01-12T10:47:53.711Z,92.47
2018-01-12T10:52:38.269Z,74.97
2018-01-12T10:54:41.371Z,86.93
2018-01-12T10:56:44.776Z,80.63
2018-01-12T10:58:48.608Z,108.63
2018-01-12T11:00:49.773Z,84.30
2018-01-12T11:02:50.844Z,94.03
2018-01-12T11:04:51.821Z,77.87
2018-01-12T11:06:52.811Z,85.83
2018-01-12T11:08:53.878Z,76.47
2018-01-12T11:10:54.924Z,80.13
2018-01-12T11:12:55.934Z,82.13
2018-01-12T11:14:56.895Z,86.03
2018-01-12T11:16:58.592Z,83.97
2018-01-12T11:19:00.452Z,77.87
2018-01-12T11:21:02.202Z,84.13
2018-01-12T11:23:03.199Z,76.33
2018-01-12T11:25:04.154Z,72.77
2018-01-12T11:27:05.127Z,69.83
2018-01-12T11:29:06.107Z,69.63
2018-01-12T11:31:07.194Z,75.73
2018-01-12T11:33:08.431Z,76.93
2018-01-12T11:35:09.433Z,74.90
2018-01-12T11:37:10.402Z,62.23
2018-01-12T11:39:12.780Z,78.37
2018-01-12T11:41:13.844Z,63.67
2018-01-12T11:43:14.865Z,64.10
2018-01-12T11:45:15.841Z,63.43
2018-01-12T11:47:16.792Z,70.80
2018-01-12T11:49:17.893Z,59.93
2018-01-12T11:51:18.827Z,66.13
2018-01-12T11:53:19.841Z,60.67
2018-01-12T11:55:20.852Z,63.20
2018-01-12T11:57:21.934Z,72.10
2018-01-12T11:59:22.884Z,65.07
2018-01-12T12:01:23.846Z,73.40
2018-01-12T12:03:24.827Z,63.53
2018-01-12T12:05:25.803Z,74.93
2018-01-12T12:07:27.109Z,71.80
2018-01-12T12:14:17.846Z,71.03
2018-01-12T12:16:19.439Z,69.27
2018-01-12T12:18:29.138Z,64.43
2018-01-12T12:22:57.943Z,61.87
2018-01-12T12:24:58.905Z,66.30
2018-01-12T12:26:59.862Z,79.43
2018-01-12T12:29:00.824Z,70.57
2018-01-12T12:31:02.196Z,62.77
2018-01-12T12:33:03.557Z,72.07
2018-01-12T12:35:04.569Z,87.53
2018-01-12T12:37:05.558Z,77.53
2018-01-12T12:39:06.512Z,109.60
2018-01-12T12:41:07.514Z,95.47
2018-01-12T12:43:08.504Z,118.63
2018-01-12T12:45:09.540Z,124.13
2018-01-12T12:47:11.228Z,100.73
2018-01-12T12:49:12.555Z,138.20
2018-01-12T12:51:13.566Z,114.90
2018-01-12T12:53:14.560Z,119.40
2018-01-12T12:55:15.536Z,128.10
2018-01-12T12:57:16.584Z,133.30
2018-01-12T12:59:17.678Z,117.27
2018-01-12T13:01:18.667Z,122.87
2018-01-12T13:03:20.416Z,114.40
2018-01-12T13:05:21.448Z,104.37
2018-01-12T13:07:23.219Z,95.47
2018-01-12T13:09:24.341Z,93.00
2018-01-12T13:11:26.683Z,95.13
2018-01-12T13:13:28.570Z,98.10
2018-01-12T13:15:30.319Z,107.57
2018-01-12T13:17:33.156Z,85.60
2018-01-12T13:19:34.197Z,80.37
2018-01-12T13:21:35.315Z,83.93
2018-01-12T13:23:36.368Z,128.43
2018-01-12T13:25:38.622Z,88.77
2018-01-12T13:27:39.729Z,79.83
2018-01-12T13:29:40.713Z,81.10
2018-01-12T13:31:41.689Z,79.93
2018-01-12T13:33:43.123Z,88.10
2018-01-12T13:35:44.697Z,78.07
2018-01-12T13:37:45.692Z,83.47
2018-01-12T13:39:46.656Z,77.07
2018-01-12T13:41:47.672Z,76.70
2018-01-12T13:43:48.632Z,85.53
2018-01-12T13:45:49.632Z,106.97
2018-01-12T13:47:50.629Z,106.07
2018-01-12T13:49:51.755Z,97.23
2018-01-12T13:51:53.096Z,95.97
2018-01-12T13:53:54.234Z,102.70
2018-01-12T13:55:55.381Z,103.57
2018-01-12T13:57:57.286Z,91.43
2018-01-12T13:59:59.799Z,102.20
2018-01-12T14:02:01.162Z,92.80
2018-01-12T14:04:02.458Z,92.87
2018-01-12T14:06:03.798Z,109.70
2018-01-12T14:08:05.089Z,126.37
2018-01-12T14:10:06.709Z,121.80
2018-01-12T14:12:08.085Z,116.10
2018-01-12T14:16:53.902Z,113.17
2018-01-12T14:23:27.384Z,137.33
2018-01-12T14:25:30.265Z,146.17
2018-01-12T14:27:31.919Z,139.33
2018-01-12T14:29:33.664Z,155.33
2018-01-12T14:31:35.286Z,124.80
2018-01-12T14:33:37.294Z,141.67
2018-01-12T14:35:39.579Z,149.73
2018-01-12T14:40:16.082Z,88.13
2018-01-12T14:44:44.850Z,91.63
2018-01-12T14:46:52.152Z,96.23
2018-01-12T14:48:53.497Z,101.57
2018-01-12T14:50:55.213Z,96.90
2018-01-12T14:52:56.280Z,99.47
2018-01-12T14:54:58.943Z,93.90
2018-01-12T14:57:01.493Z,91.57
2018-01-12T14:59:02.873Z,117.73
2018-01-12T15:05:51.570Z,112.40
2018-01-12T15:07:53.561Z,109.23
2018-01-12T15:09:55.308Z,122.23
2018-01-12T15:11:56.512Z,125.13
2018-01-12T15:13:58.044Z,119.50
2018-01-12T15:16:01.042Z,135.30
2018-01-12T15:18:02.345Z,121.87
2018-01-12T15:20:03.380Z,130.67
2018-01-12T15:22:06.301Z,119.40
2018-01-12T15:24:07.368Z,112.97
2018-01-12T15:26:08.390Z,117.57
2018-01-12T15:28:09.419Z,99.70
2018-01-12T15:30:10.513Z,116.87
2018-01-12T15:32:13.091Z,103.77
2018-01-12T15:34:14.123Z,105.23
2018-01-12T15:36:15.265Z,104.43
2018-01-12T15:40:33.608Z,102.37
2018-01-12T15:42:34.567Z,98.47
2018-01-12T15:46:56.910Z,105.03
2018-01-12T15:48:58.238Z,111.13
2018-01-12T15:51:03.435Z,97.50
2018-01-12T15:59:37.602Z,115.77
2018-01-12T16:01:44.180Z,112.63
2018-01-12T16:03:50.048Z,101.37
2018-01-12T16:05:51.815Z,112.43
2018-01-12T16:10:23.155Z,103.67
2018-01-12T16:12:32.448Z,91.83
2018-01-12T16:14:33.710Z,97.07
2018-01-12T16:16:35.088Z,100.13
2018-01-12T16:18:36.343Z,95.50
2018-01-12T16:20:44.341Z,104.20
2018-01-12T16:22:47.311Z,119.73
2018-01-12T16:24:48.452Z,98.27
2018-01-12T16:29:28.180Z,88.83
2018-01-12T16:31:29.209Z,107.03
2018-01-12T16:33:30.197Z,100.53
2018-01-12T16:35:31.170Z,121.90
2018-01-12T16:37:32.147Z,105.33
2018-01-12T16:39:33.097Z,104.00
2018-01-12T16:41:34.252Z,112.63
2018-01-12T16:43:38.240Z,108.37
2018-01-12T16:48:16.091Z,102.00
2018-01-12T16:53:09.851Z,99.50
2018-01-12T16:55:10.872Z,102.37
2018-01-12T16:57:12.609Z,103.17
2018-01-12T16:59:17.481Z,105.17
2018-01-12T17:01:21.813Z,104.20
2018-01-12T17:03:22.859Z,90.10
2018-01-12T17:05:23.908Z,105.17
2018-01-12T17:07:26.928Z,102.87
2018-01-12T17:09:28.003Z,113.37
2018-01-12T17:11:28.971Z,104.57
2018-01-12T17:13:29.983Z,114.83
2018-01-12T17:15:30.988Z,103.97
2018-01-12T17:17:32.181Z,115.30
2018-01-12T17:19:47.363Z,97.03
2018-01-12T17:21:48.369Z,110.10
2018-01-12T17:23:49.387Z,108.27
2018-01-12T17:25:50.319Z,114.70
2018-01-12T17:27:51.331Z,111.77
2018-01-12T17:29:52.301Z,111.67
2018-01-12T17:31:53.277Z,106.77
2018-01-12T17:33:54.376Z,108.47
2018-01-12T17:35:55.354Z,116.47
2018-01-12T17:37:56.368Z,115.33
2018-01-12T17:39:57.424Z,124.00
2018-01-12T17:41:58.448Z,110.67
2018-01-12T17:44:08.951Z,112.00
2018-01-12T17:46:10.068Z,95.00
2018-01-12T17:48:11.046Z,115.43
2018-01-12T17:50:12.004Z,108.73
2018-01-12T17:52:17.238Z,114.17
2018-01-12T17:54:18.273Z,101.63
2018-01-12T17:56:19.309Z,103.03
2018-01-12T17:58:20.410Z,119.17
2018-01-12T18:00:21.706Z,117.50
2018-01-12T18:02:22.699Z,124.07
2018-01-12T18:04:23.679Z,119.87
2018-01-12T18:06:24.730Z,124.73
2018-01-12T18:08:25.700Z,125.50
2018-01-12T18:10:26.669Z,133.90
2018-01-12T18:12:27.675Z,120.07
2018-01-12T18:14:28.679Z,134.70
2018-01-12T18:16:29.646Z,116.97
2018-01-12T18:18:30.592Z,123.10
2018-01-12T18:20:31.634Z,134.00
2018-01-12T18:22:32.626Z,135.77
2018-01-12T18:24:56.217Z,144.17
2018-01-12T18:26:57.186Z,151.93
2018-01-12T18:31:05.863Z,139.43
2018-01-12T18:33:06.847Z,147.43
2018-01-12T18:35:12.426Z,161.43
2018-01-12T18:37:13.607Z,157.93
2018-01-12T18:39:14.572Z,150.43
2018-01-12T18:41:16.059Z,158.53
2018-01-12T18:43:17.945Z,170.70
2018-01-12T18:45:21.883Z,165.07
2018-01-12T18:47:23.759Z,170.73
2018-01-12T18:49:24.851Z,188.53
2018-01-12T18:51:25.819Z,186.67
2018-01-12T18:53:26.775Z,167.50
2018-01-12T18:55:27.807Z,206.43
2018-01-12T18:57:28.767Z,171.33
2018-01-12T18:59:29.766Z,193.13
2018-01-12T19:01:30.784Z,212.03
2018-01-12T19:03:31.835Z,189.73
2018-01-12T19:05:35.297Z,174.77
2018-01-12T19:09:46.160Z,181.73
2018-01-12T19:11:47.441Z,200.90
2018-01-12T19:19:13.432Z,194.73
2018-01-12T19:26:30.187Z,200.77
2018-01-12T19:28:31.203Z,243.47
2018-01-12T19:30:32.291Z,203.60
2018-01-12T19:35:11.873Z,223.13
2018-01-12T19:37:12.989Z,196.47
2018-01-12T19:41:43.304Z,220.87
2018-01-12T19:43:48.990Z,257.93
2018-01-12T19:45:50.189Z,229.07
2018-01-12T19:47:51.259Z,218.27
2018-01-12T19:49:54.272Z,217.80
2018-01-12T19:51:55.340Z,200.10
2018-01-12T19:53:56.292Z,197.93
2018-01-12T19:55:57.318Z,195.07
2018-01-12T19:57:59.202Z,215.03
2018-01-12T20:00:04.432Z,194.10
2018-01-12T20:02:05.546Z,272.47
2018-01-12T20:04:07.307Z,183.13
2018-01-12T20:06:09.095Z,192.83
2018-01-12T20:08:10.150Z,232.50
2018-01-12T20:10:12.629Z,172.13
2018-01-12T20:12:13.628Z,210.53
2018-01-12T20:14:14.655Z,200.47
2018-01-12T20:16:15.627Z,206.30
2018-01-12T20:18:16.613Z,185.00
2018-01-12T20:20:17.571Z,216.13
2018-01-12T20:22:18.752Z,153.97
2018-01-12T20:24:19.734Z,192.63
2018-01-12T20:26:20.743Z,183.30
2018-01-12T20:28:21.791Z,169.90
2018-01-12T20:30:22.724Z,167.97
2018-01-12T20:32:23.727Z,183.80
2018-01-12T20:34:24.720Z,185.17
2018-01-12T20:36:25.760Z,198.67
2018-01-12T20:38:26.707Z,195.97
2018-01-12T20:40:27.723Z,201.20
2018-01-12T20:42:29.749Z,189.97
2018-01-12T20:44:30.717Z,181.07
2018-01-12T20:46:31.828Z,156.00
2018-01-12T20:48:32.771Z,199.70
2018-01-12T20:50:33.798Z,186.93
2018-01-12T20:52:34.834Z,211.20
2018-01-12T20:54:35.841Z,183.07
2018-01-12T20:56:38.464Z,195.70
2018-01-12T20:58:39.563Z,337.73
2018-01-12T21:00:40.667Z,206.63
2018-01-12T21:02:59.436Z,206.33
2018-01-12T21:05:00.428Z,235.30
2018-01-12T21:07:01.439Z,247.93
2018-01-12T21:09:02.487Z,206.40
2018-01-12T21:11:03.445Z,180.37
2018-01-12T21:13:04.444Z,225.17
2018-01-12T21:15:05.395Z,209.27
2018-01-12T21:17:07.876Z,206.10
2018-01-12T21:19:08.911Z,268.47
2018-01-12T21:21:10.000Z,224.47
2018-01-12T21:25:48.788Z,203.60
2018-01-12T21:27:52.588Z,221.00
2018-01-12T21:32:41.969Z,237.73
2018-01-12T21:34:43.905Z,262.60
2018-01-12T21:36:45.036Z,268.00
2018-01-12T21:38:46.024Z,255.80
2018-01-12T21:43:24.610Z,244.40
2018-01-12T21:45:29.910Z,238.77
2018-01-12T21:52:46.582Z,236.37
2018-01-12T21:54:49.486Z,279.70
2018-01-12T21:56:59.664Z,239.13
2018-01-12T22:01:59.805Z,252.90
2018-01-12T22:07:02.345Z,245.73
2018-01-12T22:09:18.926Z,218.90
2018-01-12T22:14:39.550Z,249.50
2018-01-12T22:16:45.283Z,225.93
2018-01-12T22:21:23.821Z,214.47
2018-01-12T22:23:28.840Z,253.97
2018-01-12T22:25:41.286Z,228.67
2018-01-12T22:27:47.169Z,229.13
2018-01-12T22:29:48.731Z,212.63
2018-01-12T22:31:49.728Z,251.57
2018-01-12T22:33:50.973Z,246.83
2018-01-12T22:48:51.711Z,220.97
2018-01-12T22:53:51.621Z,189.47
2018-01-12T22:55:52.770Z,218.93
2018-01-12T22:58:06.594Z,196.97
2018-01-12T23:00:07.690Z,217.93
2018-01-12T23:02:08.697Z,174.10
2018-01-12T23:04:29.727Z,196.87
2018-01-12T23:06:31.499Z,217.60
2018-01-12T23:13:57.202Z,132.87
2018-01-12T23:15:58.310Z,178.97
2018-01-12T23:20:20.168Z,180.93
2018-01-12T23:22:21.178Z,142.23
2018-01-12T23:24:22.209Z,168.37
2018-01-12T23:26:32.174Z,164.27
2018-01-12T23:28:33.261Z,150.23
2018-01-12T23:30:34.227Z,157.27
2018-01-12T23:32:59.069Z,149.53
2018-01-12T23:35:00.191Z,143.60
2018-01-12T23:37:01.258Z,151.00
2018-01-12T23:39:02.934Z,177.33
2018-01-12T23:41:03.996Z,185.10
2018-01-12T23:43:05.614Z,160.73
2018-01-12T23:45:06.660Z,182.77
2018-01-12T23:47:07.621Z,163.20
2018-01-12T23:49:09.469Z,183.07
2018-01-12T23:51:10.462Z,141.10
2018-01-12T23:53:13.039Z,175.70
2018-01-12T23:55:14.117Z,177.13
2018-01-12T23:57:15.083Z,193.90
2018-01-12T23:59:17.837Z,168.67
